Dauphin Barker Airport
CYDN : now visible

Airfield :











YOU CAN JOIN US ON...

 
LOGIN :

Register | Disclaimer

   EN    FR    IT 

 









Legend :    VFR   Marginal VFR   IFR   Intensive IFR   Very Intensive IFR
Visi :
Ceiling :
>= 8 km
>= 3000ft
5 to 8 km
1000 to 3000 ft
1500m to 5 km
500 to 1000 ft
800 to 1500m
200 to 500 ft
< 800m
< 200 ft
Symbols :   Thunderstorms  Fog  Heavy snow  Heavy precipitations  Wind > 20 kt






- Airport Elevation : 999 ft
- IATA code : YDN


CYDN - Dauphin Barker

CURRENT METAR :
  • 072000Z AUTO 12009KT 9SM CLR 26/19 A2965 RMK PRESFR SLP043 DENSITY ALT 2700FT

EXPIRED METARs :
  • 071900Z AUTO 18008KT 150V230 9SM CLR 27/19 A2968 RMK SLP051 DENSITY ALT 2800FT
  • 071800Z AUTO 12013KT 9SM CLR 27/20 A2966 RMK SLP043 DENSITY ALT 2800FT

TAF TAF CYDN
Valid from the 07 at 18:00 until the 08 at 06:00 UTC


071738Z 0718/0806 20008KT P6SM FEW150 OVC250
FM072000 16010KT P6SM SCT060 BKN140 OVC250
PROB40 0720/0723 VRB20G30KT 4SM TSRA SCT060CB BKN100
FM072300 16012KT P6SM BKN050 BKN120
TEMPO 0723/0804 VRB20G30KT 2SM TSRA BKN050CB
BECMG 0800/0802 27012G22KT
FM080400 27012G22KT P6SM SCT050 RMK FCST BASED ON AUTO OBS. NXT FCST BY 080000Z
CZWG FIR / North America



MET'MAP, your aeronautical weather chart ! - Copyright ORBIFLY December 2007 - Disclaimer

ORBIFLY MET'MAP TEAM :

Programming & Development : Alexandra Zaïnal
Concept & original design : Baudouin d'Aumeries
Assistance for programming : Marc-Olivier Méhu
Technical & hardware support : Manuel Goepfert

Contact : metmap@orbifly.com




SOURCES & CREDITS :

   NOAA       Earth
Advisory